Terminal Aerodrome Forecast
Issued by NWS

Home | Current Version | Previous Version | Text Only | Print | Product List | Glossary On
Versions: 1 2 3 4 5 6 7 8 9 10 11 12 13 14 15 16 17 18 19 20 21 22
000
FTUS43 KLSX 250500
TAFCPS
TAF
KCPS 250530Z 2506/2606 VRB06KT P6SM SCT007 OVC040
     FM250700 27009KT 4SM BR SCT005 OVC008
     FM251700 VRB04KT P6SM BKN250
     FM260000 06012KT P6SM SCT040 OVC100
      TEMPO 2602/2605 3SM SHRA SCT012 OVC040
     FM260500 36010KT 3SM -TSRA BR SCT007 OVC012CB=

USA.gov is the U.S. government's official web portal to all federal, state and local government web resources and services.